createdAt,value
2019-03-16T00:00:33.886Z,12.37
2019-03-16T00:03:05.581Z,7.73
2019-03-16T00:05:37.214Z,6.00
2019-03-16T00:08:08.994Z,8.30
2019-03-16T00:10:40.662Z,11.60
2019-03-16T00:13:15.856Z,8.17
2019-03-16T00:15:45.650Z,5.03
2019-03-16T00:18:17.344Z,5.63
2019-03-16T00:20:48.930Z,5.47
2019-03-16T00:23:20.778Z,10.60
2019-03-16T00:25:52.510Z,8.10
2019-03-16T00:28:24.446Z,9.00
2019-03-16T00:30:56.108Z,7.37
2019-03-16T00:33:27.713Z,9.20
2019-03-16T00:35:59.287Z,7.07
2019-03-16T00:38:30.891Z,5.37
2019-03-16T00:41:02.469Z,5.30
2019-03-16T00:43:34.226Z,7.47
2019-03-16T00:46:05.770Z,5.10
2019-03-16T00:48:37.370Z,7.50
2019-03-16T00:51:08.962Z,7.70
2019-03-16T00:53:40.625Z,7.17
2019-03-16T00:56:12.255Z,13.57
2019-03-16T00:58:43.868Z,4.03
2019-03-16T01:01:15.516Z,10.47
2019-03-16T01:03:47.193Z,3.10
2019-03-16T01:06:18.777Z,5.63
2019-03-16T01:08:50.681Z,9.83
2019-03-16T01:11:22.509Z,6.93
2019-03-16T01:13:54.357Z,8.57
2019-03-16T01:16:26.004Z,4.63
2019-03-16T01:18:57.601Z,8.23
2019-03-16T01:21:29.193Z,7.60
2019-03-16T01:24:00.861Z,6.07
2019-03-16T01:26:32.443Z,6.57
2019-03-16T01:29:04.048Z,7.43
2019-03-16T01:31:35.632Z,5.87
2019-03-16T01:34:07.227Z,7.37
2019-03-16T01:36:38.803Z,10.90
2019-03-16T01:39:10.494Z,8.40
2019-03-16T01:41:42.091Z,11.93
2019-03-16T01:44:13.704Z,7.33
2019-03-16T01:46:45.286Z,8.30
2019-03-16T01:49:16.883Z,7.10
2019-03-16T01:51:49.545Z,7.07
2019-03-16T01:54:21.344Z,9.03
2019-03-16T01:56:52.922Z,8.93
2019-03-16T01:59:24.622Z,5.50
2019-03-16T02:01:56.208Z,9.27
2019-03-16T02:04:27.903Z,5.23
2019-03-16T02:06:59.553Z,8.27
2019-03-16T02:09:31.332Z,8.90
2019-03-16T02:12:02.921Z,10.13
2019-03-16T02:14:34.533Z,8.37
2019-03-16T02:17:06.287Z,13.40
2019-03-16T02:19:37.905Z,7.13
2019-03-16T02:22:09.487Z,6.47
2019-03-16T02:24:41.089Z,7.97
2019-03-16T02:27:12.740Z,10.07
2019-03-16T02:29:44.337Z,6.03
2019-03-16T02:32:15.928Z,5.17
2019-03-16T02:34:47.528Z,10.33
2019-03-16T02:37:19.114Z,5.47
2019-03-16T02:39:51.228Z,5.97
2019-03-16T02:42:22.819Z,7.40
2019-03-16T02:44:54.598Z,8.83
2019-03-16T02:47:26.274Z,5.73
2019-03-16T02:49:57.938Z,8.83
2019-03-16T02:52:29.513Z,6.20
2019-03-16T02:55:01.301Z,6.67
2019-03-16T02:57:33.124Z,8.60
2019-03-16T03:00:05.170Z,7.23
2019-03-16T03:02:36.922Z,9.47
2019-03-16T03:05:08.880Z,6.37
2019-03-16T03:07:40.514Z,3.03
2019-03-16T03:10:12.280Z,4.40
2019-03-16T03:12:43.943Z,8.00
2019-03-16T03:15:16.621Z,6.80
2019-03-16T03:17:48.205Z,7.70
2019-03-16T03:20:19.854Z,3.70
2019-03-16T03:22:51.593Z,8.40
2019-03-16T03:25:23.248Z,9.13
2019-03-16T03:27:54.848Z,8.10
2019-03-16T03:30:26.462Z,11.23
2019-03-16T03:32:58.066Z,6.33
2019-03-16T03:35:29.851Z,10.23
2019-03-16T03:38:01.509Z,7.63
2019-03-16T03:40:33.192Z,8.00
2019-03-16T03:43:04.841Z,8.30
2019-03-16T03:45:36.449Z,12.40
2019-03-16T03:48:08.107Z,11.60
2019-03-16T03:50:39.703Z,9.37
2019-03-16T03:53:11.357Z,15.40
2019-03-16T03:55:42.955Z,7.13
2019-03-16T03:58:14.526Z,8.00
2019-03-16T04:00:46.112Z,13.13
2019-03-16T04:03:17.792Z,10.57
2019-03-16T04:05:49.520Z,4.50
2019-03-16T04:08:21.346Z,8.17
2019-03-16T04:10:53.043Z,6.27
2019-03-16T04:13:24.732Z,8.67
2019-03-16T04:15:56.313Z,5.40
2019-03-16T04:18:28.002Z,10.03
2019-03-16T04:20:59.619Z,7.80
2019-03-16T04:23:32.285Z,8.97
2019-03-16T04:26:03.948Z,7.53
2019-03-16T04:28:35.547Z,10.67
2019-03-16T04:31:07.250Z,7.17
2019-03-16T04:33:39.015Z,5.53
2019-03-16T04:36:10.625Z,11.87
2019-03-16T04:38:42.308Z,8.10
2019-03-16T04:41:14.096Z,8.60
2019-03-16T04:43:45.805Z,8.00
2019-03-16T04:46:17.506Z,13.93
2019-03-16T04:48:49.197Z,10.60
2019-03-16T04:51:20.799Z,5.73
2019-03-16T04:53:52.524Z,10.73
2019-03-16T04:56:24.481Z,8.03
2019-03-16T04:58:56.070Z,9.07
2019-03-16T05:01:27.746Z,5.60
2019-03-16T05:03:59.516Z,11.23
2019-03-16T05:06:31.484Z,9.57
2019-03-16T05:09:03.421Z,10.07
2019-03-16T05:11:35.109Z,10.60
2019-03-16T05:14:06.690Z,8.77
2019-03-16T05:16:38.463Z,14.10
2019-03-16T05:19:10.165Z,9.90
2019-03-16T05:21:41.957Z,10.43
2019-03-16T05:24:13.667Z,10.17
2019-03-16T05:26:45.271Z,10.73
2019-03-16T05:29:16.863Z,14.77
2019-03-16T05:31:50.662Z,8.17
2019-03-16T05:34:21.896Z,57.97
2019-03-16T05:36:56.085Z,15.57
2019-03-16T05:39:27.112Z,8.70
2019-03-16T05:41:58.819Z,8.53
2019-03-16T05:44:30.502Z,13.90
2019-03-16T05:47:02.188Z,12.37
2019-03-16T05:49:33.771Z,11.33
2019-03-16T05:52:05.478Z,12.57
2019-03-16T05:54:37.069Z,13.13
2019-03-16T05:57:08.677Z,9.10
2019-03-16T05:59:40.267Z,14.63
2019-03-16T06:02:12.570Z,10.07
2019-03-16T06:04:44.259Z,9.87
2019-03-16T06:07:15.966Z,17.00
2019-03-16T06:09:47.667Z,9.13
2019-03-16T06:12:19.291Z,13.73
2019-03-16T06:14:50.875Z,6.93
2019-03-16T06:17:22.679Z,8.30
2019-03-16T06:19:54.442Z,8.60
2019-03-16T06:22:26.039Z,10.97
2019-03-16T06:24:57.646Z,9.83
2019-03-16T06:27:29.270Z,12.63
2019-03-16T06:30:00.874Z,6.40
2019-03-16T06:32:33.633Z,6.80
2019-03-16T06:35:05.241Z,18.33
2019-03-16T06:37:36.923Z,9.77
2019-03-16T06:40:08.654Z,11.43
2019-03-16T06:42:40.374Z,15.37
2019-03-16T06:45:12.131Z,6.37
2019-03-16T06:47:43.747Z,9.37
2019-03-16T06:50:15.443Z,9.03
2019-03-16T06:52:47.031Z,8.97
2019-03-16T06:55:18.614Z,6.23
2019-03-16T06:57:50.191Z,9.27
2019-03-16T07:00:21.781Z,10.67
2019-03-16T07:02:53.637Z,8.77
2019-03-16T07:05:37.540Z,10.00
2019-03-16T07:07:59.022Z,10.17
2019-03-16T07:10:30.670Z,7.67
2019-03-16T07:13:02.250Z,7.73
2019-03-16T07:15:33.873Z,13.77
2019-03-16T07:18:05.590Z,13.70
2019-03-16T07:20:37.185Z,9.20
2019-03-16T07:23:09.883Z,14.00
2019-03-16T07:25:41.590Z,11.27
2019-03-16T07:28:13.490Z,11.50
2019-03-16T07:30:45.170Z,10.43
2019-03-16T07:33:16.819Z,18.03
2019-03-16T07:35:48.417Z,12.37
2019-03-16T07:38:20.091Z,13.37
2019-03-16T07:40:51.759Z,8.50
2019-03-16T07:43:23.627Z,9.13
2019-03-16T07:45:55.498Z,8.73
2019-03-16T07:48:27.095Z,9.23
2019-03-16T07:50:58.690Z,7.53
2019-03-16T07:53:30.298Z,11.77
2019-03-16T07:56:03.679Z,9.43
2019-03-16T07:58:35.374Z,15.33
2019-03-16T08:01:06.957Z,11.93
2019-03-16T08:03:38.574Z,16.33
2019-03-16T08:06:10.158Z,12.10
2019-03-16T08:08:41.841Z,8.80
2019-03-16T08:11:13.429Z,26.97
2019-03-16T08:13:45.030Z,25.83
2019-03-16T08:16:16.627Z,23.33
2019-03-16T08:18:48.307Z,63.40
2019-03-16T08:21:19.959Z,22.70
2019-03-16T08:23:53.746Z,33.47
2019-03-16T08:26:24.958Z,13.37
2019-03-16T08:28:59.154Z,22.87
2019-03-16T08:31:29.911Z,15.87
2019-03-16T08:34:01.603Z,14.43
2019-03-16T08:36:33.261Z,12.30
2019-03-16T08:39:05.675Z,16.13
2019-03-16T08:41:37.266Z,24.00
2019-03-16T08:44:08.883Z,14.77
2019-03-16T08:46:41.006Z,8.17
2019-03-16T08:49:12.762Z,14.53
2019-03-16T08:51:44.367Z,13.50
2019-03-16T08:54:15.969Z,14.40
2019-03-16T08:56:47.645Z,16.23
2019-03-16T08:59:19.309Z,14.17
2019-03-16T09:01:51.976Z,20.20
2019-03-16T09:04:23.692Z,25.90
2019-03-16T09:06:56.248Z,18.20
2019-03-16T09:09:27.854Z,15.17
2019-03-16T09:12:00.520Z,19.07
2019-03-16T09:14:32.117Z,10.13
2019-03-16T09:17:04.021Z,15.00
2019-03-16T09:19:35.858Z,16.57
2019-03-16T09:22:07.573Z,16.27
2019-03-16T09:24:39.264Z,12.23
2019-03-16T09:27:10.947Z,11.77
2019-03-16T09:29:42.562Z,12.27
2019-03-16T09:32:14.153Z,15.63
2019-03-16T09:34:45.760Z,9.97
2019-03-16T09:37:17.341Z,11.23
2019-03-16T09:39:48.964Z,14.53
2019-03-16T09:42:20.810Z,14.37
2019-03-16T09:44:52.656Z,14.97
2019-03-16T09:47:24.589Z,10.80
2019-03-16T09:50:20.335Z,11.77
2019-03-16T09:52:52.809Z,12.33
2019-03-16T09:55:25.392Z,14.77
2019-03-16T09:57:57.084Z,15.43
2019-03-16T10:00:28.713Z,16.30
2019-03-16T10:03:00.310Z,7.60
2019-03-16T10:05:31.924Z,11.00
2019-03-16T10:08:03.586Z,9.27
2019-03-16T10:10:35.451Z,8.10
2019-03-16T10:13:07.612Z,11.20
2019-03-16T10:15:41.275Z,11.63
2019-03-16T10:18:13.234Z,8.23
2019-03-16T10:20:44.979Z,9.50
2019-03-16T10:23:17.817Z,12.57
2019-03-16T10:25:49.826Z,14.93
2019-03-16T10:28:22.113Z,10.03
2019-03-16T10:30:53.772Z,13.03
2019-03-16T10:33:25.466Z,9.50
2019-03-16T10:35:58.138Z,23.10
2019-03-16T10:38:29.734Z,11.93
2019-03-16T10:41:01.349Z,16.70
2019-03-16T10:43:34.469Z,13.97
2019-03-16T10:46:08.365Z,17.03
2019-03-16T10:48:39.740Z,9.03
2019-03-16T10:51:11.439Z,5.37
2019-03-16T10:53:43.094Z,4.33
2019-03-16T10:56:14.814Z,10.17
2019-03-16T10:58:56.130Z,9.00
2019-03-16T11:01:20.254Z,19.77
2019-03-16T11:03:52.652Z,6.60
2019-03-16T11:06:24.631Z,18.57
2019-03-16T11:08:56.677Z,70.17
2019-03-16T11:11:28.305Z,14.37
2019-03-16T11:14:00.089Z,8.80
2019-03-16T11:16:33.520Z,8.00
2019-03-16T11:19:05.584Z,13.63
2019-03-16T11:21:37.361Z,12.50
2019-03-16T11:24:09.169Z,12.53
2019-03-16T11:26:41.127Z,17.40
2019-03-16T11:29:13.031Z,17.63
2019-03-16T11:31:45.021Z,15.57
2019-03-16T11:34:16.850Z,13.20
2019-03-16T11:36:48.576Z,19.23
2019-03-16T11:39:20.482Z,15.63
2019-03-16T11:41:54.077Z,16.00
2019-03-16T11:44:28.105Z,19.10
2019-03-16T11:46:59.826Z,11.23
2019-03-16T11:49:31.711Z,15.63
2019-03-16T11:52:03.891Z,12.50
2019-03-16T11:54:35.773Z,11.77
2019-03-16T11:57:07.626Z,13.00
2019-03-16T11:59:39.367Z,14.07
2019-03-16T12:02:11.055Z,13.93
2019-03-16T12:04:42.961Z,14.07
2019-03-16T12:07:14.756Z,49.27
2019-03-16T12:09:46.517Z,15.70
2019-03-16T12:12:18.293Z,16.30
2019-03-16T12:14:50.156Z,13.40
2019-03-16T12:17:22.192Z,16.77
2019-03-16T12:19:54.001Z,13.87
2019-03-16T12:22:25.730Z,226.53
2019-03-16T12:24:58.304Z,77.67
2019-03-16T12:27:30.338Z,10.87
2019-03-16T12:30:06.039Z,18.40
2019-03-16T12:32:40.899Z,31.73
2019-03-16T12:35:14.806Z,20.50
2019-03-16T12:37:46.969Z,34.80
2019-03-16T12:40:18.979Z,19.57
2019-03-16T12:42:50.620Z,19.13
2019-03-16T12:45:22.661Z,18.57
2019-03-16T12:47:54.394Z,23.37
2019-03-16T12:50:26.294Z,65.27
2019-03-16T12:52:58.394Z,66.90
2019-03-16T12:55:30.487Z,35.43
2019-03-16T12:58:03.643Z,24.33
2019-03-16T13:00:35.668Z,19.63
2019-03-16T13:03:07.966Z,17.63
2019-03-16T13:05:40.302Z,19.33
2019-03-16T13:08:12.452Z,15.47
2019-03-16T13:10:44.765Z,10.13
2019-03-16T13:13:16.762Z,16.87
2019-03-16T13:15:49.363Z,26.43
2019-03-16T13:18:21.710Z,26.70
2019-03-16T13:20:53.519Z,22.57
2019-03-16T13:23:25.507Z,12.83
2019-03-16T13:25:57.417Z,19.23
2019-03-16T13:28:29.020Z,8.40
2019-03-16T13:31:00.647Z,13.77
2019-03-16T13:33:33.347Z,10.23
2019-03-16T13:36:04.959Z,6.93
2019-03-16T13:38:36.646Z,15.17
2019-03-16T13:41:08.414Z,13.13
2019-03-16T13:43:40.055Z,15.27
2019-03-16T13:46:11.671Z,47.27
2019-03-16T13:48:43.579Z,19.00
2019-03-16T13:51:15.196Z,12.13
2019-03-16T13:53:46.824Z,14.03
2019-03-16T13:56:18.492Z,21.50
2019-03-16T13:58:50.392Z,27.43
2019-03-16T14:01:22.108Z,13.03
2019-03-16T14:03:53.928Z,40.57
2019-03-16T14:06:25.897Z,23.27
2019-03-16T14:08:57.807Z,76.73
2019-03-16T14:11:29.439Z,10.37
2019-03-16T14:14:01.048Z,27.13
2019-03-16T14:16:32.720Z,17.70
2019-03-16T14:19:04.641Z,69.27
2019-03-16T14:21:38.030Z,112.13
2019-03-16T14:24:09.715Z,66.23
2019-03-16T14:26:42.619Z,110.20
2019-03-16T14:29:14.401Z,58.03
2019-03-16T14:31:48.016Z,20.50
2019-03-16T14:34:20.129Z,16.20
2019-03-16T14:36:53.338Z,19.90
2019-03-16T14:39:27.389Z,13.77
2019-03-16T14:41:59.636Z,14.00
2019-03-16T14:44:32.300Z,36.33
2019-03-16T14:47:04.172Z,25.30
2019-03-16T14:49:35.874Z,30.30
2019-03-16T14:52:07.790Z,10.63
2019-03-16T14:54:39.482Z,24.50
2019-03-16T14:57:11.164Z,11.13
2019-03-16T14:59:44.009Z,14.83
2019-03-16T15:02:15.616Z,15.17
2019-03-16T15:04:47.310Z,20.07
2019-03-16T15:07:18.915Z,22.93
2019-03-16T15:09:50.646Z,12.73
2019-03-16T15:12:22.466Z,15.07
2019-03-16T15:14:54.542Z,22.67
2019-03-16T15:17:28.352Z,29.07
2019-03-16T15:20:00.571Z,21.33
2019-03-16T15:22:32.371Z,24.17
2019-03-16T15:25:04.488Z,10.67
2019-03-16T15:27:36.284Z,16.07
2019-03-16T15:30:10.520Z,10.00
2019-03-16T15:32:44.796Z,11.10
2019-03-16T15:35:17.385Z,7.80
2019-03-16T15:37:49.327Z,5.37
2019-03-16T15:40:21.406Z,13.07
2019-03-16T15:42:54.615Z,25.67
2019-03-16T15:45:26.889Z,14.60
2019-03-16T15:47:58.805Z,15.67
2019-03-16T15:50:30.688Z,9.50
2019-03-16T15:53:02.499Z,11.07
2019-03-16T15:55:34.268Z,16.33
2019-03-16T15:58:08.435Z,8.83
2019-03-16T16:00:39.585Z,7.73
2019-03-16T16:03:11.548Z,6.80
2019-03-16T16:05:43.361Z,7.67
2019-03-16T16:08:15.134Z,6.50
2019-03-16T16:10:59.714Z,7.13
2019-03-16T16:13:22.052Z,12.80
2019-03-16T16:15:55.013Z,4.93
2019-03-16T16:18:26.777Z,14.43
2019-03-16T16:20:58.644Z,15.57
2019-03-16T16:23:30.440Z,12.40
2019-03-16T16:26:02.293Z,46.40
2019-03-16T16:28:34.414Z,26.10
2019-03-16T16:31:16.229Z,40.87
2019-03-16T16:33:40.686Z,28.10
2019-03-16T16:36:12.502Z,28.23
2019-03-16T16:38:44.427Z,28.07
2019-03-16T16:41:16.260Z,38.10
2019-03-16T16:43:48.140Z,42.97
2019-03-16T16:46:19.765Z,37.10
2019-03-16T16:48:51.543Z,32.30
2019-03-16T16:51:23.345Z,46.20
2019-03-16T16:53:55.298Z,25.07
2019-03-16T16:56:27.247Z,19.63
2019-03-16T16:58:59.078Z,184.83
2019-03-16T17:01:32.258Z,317.40
2019-03-16T17:04:04.578Z,105.63
2019-03-16T17:06:36.445Z,167.23
2019-03-16T17:09:08.805Z,95.60
2019-03-16T17:11:40.452Z,38.47
2019-03-16T17:14:12.230Z,16.13
2019-03-16T17:16:43.929Z,15.03
2019-03-16T17:19:15.663Z,15.30
2019-03-16T17:21:47.406Z,13.30
2019-03-16T17:24:19.460Z,20.70
2019-03-16T17:26:54.373Z,21.53
2019-03-16T17:29:26.799Z,21.37
2019-03-16T17:31:58.763Z,19.93
2019-03-16T17:34:30.496Z,22.10
2019-03-16T17:37:02.402Z,20.80
2019-03-16T17:39:34.151Z,22.97
2019-03-16T17:42:07.913Z,14.80
2019-03-16T17:44:39.785Z,20.80
2019-03-16T17:47:11.711Z,21.30
2019-03-16T17:49:44.876Z,20.33
2019-03-16T17:52:16.749Z,26.27
2019-03-16T17:54:48.411Z,21.07
2019-03-16T17:57:20.106Z,32.57
2019-03-16T17:59:52.316Z,32.70
2019-03-16T18:02:24.009Z,68.13
2019-03-16T18:04:59.578Z,76.47
2019-03-16T18:07:34.231Z,67.37
2019-03-16T18:10:08.580Z,94.77
2019-03-16T18:12:40.710Z,172.23
2019-03-16T18:15:12.912Z,172.50
2019-03-16T18:17:47.211Z,125.53
2019-03-16T18:20:19.225Z,133.80
2019-03-16T18:22:51.135Z,111.27
2019-03-16T18:25:23.491Z,93.17
2019-03-16T18:27:55.297Z,118.90
2019-03-16T18:30:27.161Z,139.97
2019-03-16T18:32:59.473Z,136.83
2019-03-16T18:35:31.304Z,158.40
2019-03-16T18:38:03.073Z,223.20
2019-03-16T18:40:34.884Z,194.20
2019-03-16T18:43:06.841Z,108.30
2019-03-16T18:45:39.438Z,94.67
2019-03-16T18:48:13.451Z,49.10
2019-03-16T18:50:46.276Z,86.03
2019-03-16T18:53:22.378Z,63.50
2019-03-16T18:55:55.676Z,75.53
2019-03-16T18:58:37.033Z,73.33
2019-03-16T19:01:03.225Z,98.73
2019-03-16T19:03:39.800Z,139.50
2019-03-16T19:06:12.563Z,53.40
2019-03-16T19:08:44.289Z,88.10
2019-03-16T19:11:16.591Z,43.00
2019-03-16T19:13:48.843Z,39.33
2019-03-16T19:16:20.936Z,70.47
2019-03-16T19:18:52.772Z,57.60
2019-03-16T19:21:24.698Z,59.57
2019-03-16T19:23:56.944Z,72.50
2019-03-16T19:26:30.078Z,142.10
2019-03-16T19:29:02.262Z,75.87
2019-03-16T19:31:34.086Z,47.73
2019-03-16T19:34:07.081Z,67.67
2019-03-16T19:36:39.478Z,46.60
2019-03-16T19:39:11.723Z,37.37
2019-03-16T19:41:46.313Z,58.00
2019-03-16T19:44:18.426Z,40.47
2019-03-16T19:46:52.234Z,29.60
2019-03-16T19:49:26.247Z,74.43
2019-03-16T19:52:01.559Z,40.50
2019-03-16T19:54:33.758Z,57.30
2019-03-16T19:57:15.480Z,61.43
2019-03-16T19:59:42.148Z,48.13
2019-03-16T20:02:14.648Z,42.47
2019-03-16T20:04:46.506Z,34.73
2019-03-16T20:07:19.592Z,32.23
2019-03-16T20:09:53.115Z,31.60
2019-03-16T20:12:24.863Z,40.27
2019-03-16T20:14:56.955Z,55.90
2019-03-16T20:17:28.859Z,38.53
2019-03-16T20:20:01.293Z,33.33
2019-03-16T20:22:33.422Z,41.03
2019-03-16T20:25:05.501Z,26.20
2019-03-16T20:27:38.699Z,24.73
2019-03-16T20:30:26.458Z,35.07
2019-03-16T20:33:04.370Z,47.70
2019-03-16T20:35:37.150Z,39.63
2019-03-16T20:38:08.870Z,28.33
2019-03-16T20:40:40.652Z,30.13
2019-03-16T20:43:12.364Z,53.97
2019-03-16T20:45:44.084Z,41.53
2019-03-16T20:48:15.902Z,37.10
2019-03-16T20:50:47.613Z,31.07
2019-03-16T20:53:19.311Z,32.43
2019-03-16T20:55:51.200Z,40.50
2019-03-16T20:58:23.148Z,36.30
2019-03-16T21:00:57.877Z,90.47
2019-03-16T21:03:29.185Z,88.87
2019-03-16T21:06:00.925Z,70.10
2019-03-16T21:08:32.751Z,40.03
2019-03-16T21:11:04.500Z,54.43
2019-03-16T21:13:36.603Z,38.20
2019-03-16T21:16:10.718Z,53.73
2019-03-16T21:18:42.799Z,44.30
2019-03-16T21:21:14.456Z,28.27
2019-03-16T21:23:46.134Z,39.90
2019-03-16T21:26:17.734Z,36.90
2019-03-16T21:28:49.421Z,38.77
2019-03-16T21:31:21.047Z,36.27
2019-03-16T21:33:52.706Z,34.20
2019-03-16T21:36:24.363Z,22.20
2019-03-16T21:38:56.916Z,24.17
2019-03-16T21:41:28.597Z,28.67
2019-03-16T21:44:00.260Z,32.60
2019-03-16T21:46:31.849Z,35.90
2019-03-16T21:49:03.446Z,30.93
2019-03-16T21:51:35.125Z,30.17
2019-03-16T21:54:06.799Z,53.10
2019-03-16T21:56:38.407Z,70.60
2019-03-16T21:59:10.057Z,51.77
2019-03-16T22:01:41.676Z,86.23
2019-03-16T22:04:13.266Z,38.57
2019-03-16T22:06:44.866Z,37.80
2019-03-16T22:09:16.932Z,46.37
2019-03-16T22:11:48.567Z,31.70
2019-03-16T22:14:20.162Z,36.37
2019-03-16T22:16:51.783Z,35.73
2019-03-16T22:19:23.377Z,35.83
2019-03-16T22:21:55.085Z,35.43
2019-03-16T22:24:28.085Z,39.07
2019-03-16T22:27:00.015Z,40.07
2019-03-16T22:29:31.595Z,36.13
2019-03-16T22:32:03.307Z,31.70
2019-03-16T22:34:34.954Z,35.03
2019-03-16T22:37:06.590Z,31.50
2019-03-16T22:39:38.159Z,28.83
2019-03-16T22:42:09.785Z,32.40
2019-03-16T22:44:41.439Z,30.27
2019-03-16T22:47:13.118Z,28.57
2019-03-16T22:49:44.767Z,28.03
2019-03-16T22:52:16.427Z,29.07
2019-03-16T22:54:48.013Z,28.47
2019-03-16T22:57:19.616Z,23.17
2019-03-16T22:59:51.326Z,25.63
2019-03-16T23:02:23.188Z,24.30
2019-03-16T23:04:54.999Z,31.73
2019-03-16T23:07:26.965Z,18.47
2019-03-16T23:09:58.613Z,25.37
2019-03-16T23:12:30.223Z,24.07
2019-03-16T23:15:01.913Z,26.07
2019-03-16T23:17:33.784Z,25.47
2019-03-16T23:20:05.600Z,38.07
2019-03-16T23:22:37.276Z,36.93
2019-03-16T23:25:08.939Z,26.33
2019-03-16T23:27:40.607Z,23.70
2019-03-16T23:30:12.280Z,34.97
2019-03-16T23:32:43.964Z,49.00
2019-03-16T23:35:15.629Z,21.93
2019-03-16T23:37:47.288Z,39.67
2019-03-16T23:40:18.939Z,22.37
2019-03-16T23:42:50.720Z,41.67
2019-03-16T23:45:22.307Z,52.03
2019-03-16T23:47:54.084Z,37.10
2019-03-16T23:50:25.786Z,40.73
2019-03-16T23:52:57.396Z,36.60
2019-03-16T23:55:28.996Z,22.30
2019-03-16T23:58:00.644Z,18.53
